TimeCST,TemperatureF,Dew PointF,Humidity,Sea Level PressureIn,VisibilityMPH,Wind Direction,Wind SpeedMPH,Gust SpeedMPH,PrecipitationIn,Events,Conditions,WindDirDegrees,DateUTC
12:15 AM,64.4,48.2,56,30.23,10.0,NE,15.0,-,N/A,,Clear,50,2014-01-18 06:15:00
12:35 AM,64.4,48.2,56,30.23,10.0,ENE,15.0,-,N/A,,Partly Cloudy,60,2014-01-18 06:35:00
12:55 AM,64.4,50.0,59,30.22,10.0,ENE,13.8,-,N/A,,Scattered Clouds,60,2014-01-18 06:55:00
1:15 AM,66.2,48.2,52,30.22,10.0,ENE,11.5,-,N/A,,Partly Cloudy,70,2014-01-18 07:15:00
1:35 AM,66.2,50.0,56,30.22,10.0,ENE,12.7,-,N/A,,Clear,70,2014-01-18 07:35:00
1:55 AM,66.2,48.2,52,30.22,10.0,ENE,11.5,-,N/A,,Partly Cloudy,70,2014-01-18 07:55:00
2:15 AM,66.2,50.0,56,30.21,10.0,ENE,12.7,-,N/A,,Clear,60,2014-01-18 08:15:00
2:35 AM,66.2,50.0,56,30.21,10.0,ENE,13.8,-,N/A,,Clear,70,2014-01-18 08:35:00
2:55 AM,66.2,51.8,60,30.21,10.0,ENE,12.7,-,N/A,,Clear,60,2014-01-18 08:55:00
3:15 AM,66.2,51.8,60,30.21,10.0,East,11.5,-,N/A,,Partly Cloudy,80,2014-01-18 09:15:00
3:35 AM,66.2,51.8,60,30.20,10.0,ENE,11.5,-,N/A,,Scattered Clouds,70,2014-01-18 09:35:00
3:55 AM,66.2,51.8,60,30.20,10.0,ENE,12.7,-,N/A,,Partly Cloudy,70,2014-01-18 09:55:00
4:15 AM,66.2,53.6,64,30.20,10.0,East,12.7,-,N/A,,Scattered Clouds,80,2014-01-18 10:15:00
4:35 AM,66.2,51.8,60,30.19,10.0,ENE,12.7,-,N/A,,Scattered Clouds,70,2014-01-18 10:35:00
4:55 AM,66.2,53.6,64,30.19,10.0,East,10.4,-,N/A,,Mostly Cloudy,90,2014-01-18 10:55:00
5:15 AM,66.2,53.6,64,30.19,10.0,East,11.5,-,N/A,,Overcast,80,2014-01-18 11:15:00
5:35 AM,66.2,53.6,64,30.19,10.0,East,11.5,-,N/A,,Overcast,90,2014-01-18 11:35:00
5:55 AM,66.2,53.6,64,30.18,10.0,East,11.5,-,N/A,,Overcast,80,2014-01-18 11:55:00
6:15 AM,66.2,55.4,68,30.18,10.0,SE,12.7,-,N/A,,Overcast,130,2014-01-18 12:15:00
6:35 AM,64.4,59.0,83,30.19,10.0,SE,9.2,-,N/A,,Overcast,140,2014-01-18 12:35:00
6:55 AM,64.4,59.0,83,30.19,10.0,SE,8.1,-,N/A,,Mostly Cloudy,130,2014-01-18 12:55:00
7:15 AM,64.4,60.8,88,30.19,10.0,SE,11.5,-,N/A,,Mostly Cloudy,130,2014-01-18 13:15:00
7:35 AM,64.4,59.0,83,30.19,10.0,ESE,13.8,-,N/A,,Overcast,110,2014-01-18 13:35:00
7:55 AM,64.4,59.0,83,30.19,10.0,ESE,15.0,-,N/A,,Mostly Cloudy,120,2014-01-18 13:55:00
8:15 AM,64.4,59.0,83,30.19,10.0,ESE,11.5,-,N/A,,Clear,120,2014-01-18 14:15:00
8:35 AM,64.4,59.0,83,30.19,10.0,ESE,10.4,-,N/A,,Clear,120,2014-01-18 14:35:00
8:55 AM,66.2,59.0,78,30.20,10.0,SE,10.4,-,N/A,,Clear,130,2014-01-18 14:55:00
9:15 AM,66.2,59.0,78,30.20,10.0,ESE,10.4,-,N/A,,Clear,120,2014-01-18 15:15:00
9:35 AM,66.2,59.0,78,30.20,10.0,ESE,9.2,-,N/A,,Partly Cloudy,120,2014-01-18 15:35:00
9:55 AM,66.2,60.8,83,30.21,10.0,SE,8.1,-,N/A,,Partly Cloudy,130,2014-01-18 15:55:00
10:15 AM,66.2,59.0,78,30.21,10.0,SSE,8.1,-,N/A,,Partly Cloudy,160,2014-01-18 16:15:00
10:35 AM,66.2,59.0,78,30.21,10.0,South,6.9,-,N/A,,Partly Cloudy,170,2014-01-18 16:35:00
10:55 AM,66.2,59.0,78,30.21,10.0,SSE,5.8,-,N/A,,Clear,160,2014-01-18 16:55:00
11:15 AM,66.2,59.0,78,30.20,10.0,South,5.8,-,N/A,,Clear,180,2014-01-18 17:15:00
11:35 AM,66.2,59.0,78,30.19,10.0,South,4.6,-,N/A,,Clear,170,2014-01-18 17:35:00
11:55 AM,66.2,59.0,78,30.18,10.0,South,4.6,-,N/A,,Clear,190,2014-01-18 17:55:00
12:15 PM,66.2,59.0,78,30.16,10.0,Calm,Calm,-,N/A,,Mostly Cloudy,0,2014-01-18 18:15:00
12:35 PM,66.2,59.0,78,30.15,10.0,SW,3.5,-,N/A,,Mostly Cloudy,220,2014-01-18 18:35:00
12:55 PM,66.2,59.0,78,30.14,10.0,SSW,3.5,-,N/A,,Mostly Cloudy,200,2014-01-18 18:55:00
1:15 PM,66.2,59.0,78,30.12,10.0,South,3.5,-,N/A,,Overcast,180,2014-01-18 19:15:00
1:35 PM,66.2,59.0,78,30.12,10.0,SSE,3.5,-,N/A,,Overcast,160,2014-01-18 19:35:00
1:55 PM,66.2,59.0,78,30.11,10.0,Calm,Calm,-,N/A,,Overcast,0,2014-01-18 19:55:00
2:15 PM,66.2,59.0,78,30.10,10.0,East,4.6,-,N/A,,Overcast,100,2014-01-18 20:15:00
2:35 PM,66.2,59.0,78,30.10,10.0,ESE,5.8,-,N/A,,Scattered Clouds,120,2014-01-18 20:35:00
2:55 PM,68.0,59.0,73,30.10,10.0,SE,5.8,-,N/A,,Clear,130,2014-01-18 20:55:00
3:15 PM,68.0,59.0,73,30.10,10.0,SE,6.9,-,N/A,,Clear,140,2014-01-18 21:15:00
3:35 PM,68.0,59.0,73,30.10,10.0,SSE,9.2,-,N/A,,Clear,160,2014-01-18 21:35:00
3:55 PM,68.0,59.0,73,30.09,10.0,SSE,8.1,-,N/A,,Clear,150,2014-01-18 21:55:00
4:15 PM,68.0,59.0,73,30.10,10.0,SSE,8.1,-,N/A,,Clear,150,2014-01-18 22:15:00
4:35 PM,68.0,59.0,73,30.09,-9999.0,SSE,8.1,-,N/A,,Clear,150,2014-01-18 22:35:00
4:55 PM,68.0,59.0,73,30.10,10.0,SSE,8.1,-,N/A,,Clear,150,2014-01-18 22:55:00
5:15 PM,66.2,59.0,78,30.10,10.0,SSE,9.2,-,N/A,,Clear,160,2014-01-18 23:15:00
5:35 PM,66.2,59.0,78,30.10,10.0,South,13.8,-,N/A,,Clear,170,2014-01-18 23:35:00
5:55 PM,66.2,59.0,78,30.10,10.0,South,18.4,-,N/A,,Clear,180,2014-01-18 23:55:00
6:15 PM,66.2,59.0,78,30.10,10.0,South,18.4,-,N/A,,Clear,170,2014-01-19 00:15:00
6:35 PM,66.2,59.0,78,30.10,10.0,South,16.1,-,N/A,,Clear,180,2014-01-19 00:35:00
6:55 PM,66.2,59.0,78,30.10,10.0,South,18.4,-,N/A,,Clear,180,2014-01-19 00:55:00
7:15 PM,66.2,59.0,78,30.10,10.0,South,18.4,-,N/A,,Clear,180,2014-01-19 01:15:00
7:35 PM,66.2,59.0,78,30.11,10.0,South,18.4,-,N/A,,Clear,180,2014-01-19 01:35:00
7:55 PM,66.2,60.8,83,30.12,10.0,South,17.3,-,N/A,,Clear,180,2014-01-19 01:55:00
8:15 PM,64.4,60.8,88,30.13,10.0,South,16.1,-,N/A,,Clear,180,2014-01-19 02:15:00
8:35 PM,66.2,60.8,83,30.14,10.0,South,15.0,-,N/A,,Clear,180,2014-01-19 02:35:00
8:55 PM,66.2,60.8,83,30.14,10.0,South,15.0,-,N/A,,Clear,190,2014-01-19 02:55:00
9:15 PM,66.2,60.8,83,30.14,10.0,South,13.8,-,N/A,,Clear,190,2014-01-19 03:15:00
9:35 PM,66.2,60.8,83,30.15,-9999.0,SSW,15.0,-,N/A,,Clear,200,2014-01-19 03:35:00
9:55 PM,66.2,60.8,83,30.15,10.0,SSW,16.1,-,N/A,,Clear,210,2014-01-19 03:55:00
10:15 PM,66.2,60.8,83,30.16,10.0,SSW,12.7,-,N/A,,Clear,210,2014-01-19 04:15:00
10:35 PM,66.2,60.8,83,30.16,10.0,SSW,11.5,-,N/A,,Clear,210,2014-01-19 04:35:00
10:55 PM,66.2,60.8,83,30.16,10.0,SSW,10.4,-,N/A,,Clear,210,2014-01-19 04:55:00
11:15 PM,66.2,60.8,83,30.16,10.0,SSW,9.2,-,N/A,,Clear,210,2014-01-19 05:15:00
11:35 PM,64.4,60.8,88,30.16,10.0,SW,8.1,-,N/A,,Clear,220,2014-01-19 05:35:00
11:55 PM,64.4,60.8,88,30.16,10.0,SW,8.1,-,N/A,,Clear,230,2014-01-19 05:55:00